sensor_id;sensor_type;location;lat;lon;timestamp;P1;durP1;ratioP1;P2;durP2;ratioP2
7017;SDS011;3549;42.162;24.726;2022-12-05T00:02:22;35.80;;;17.37;;
7017;SDS011;3549;42.162;24.726;2022-12-05T00:04:48;34.37;;;17.57;;
7017;SDS011;3549;42.162;24.726;2022-12-05T00:07:13;32.47;;;16.03;;
7017;SDS011;3549;42.162;24.726;2022-12-05T00:09:39;30.97;;;15.87;;
7017;SDS011;3549;42.162;24.726;2022-12-05T00:12:04;32.77;;;15.60;;
7017;SDS011;3549;42.162;24.726;2022-12-05T00:14:30;30.10;;;15.20;;
7017;SDS011;3549;42.162;24.726;2022-12-05T00:16:55;31.30;;;16.40;;
7017;SDS011;3549;42.162;24.726;2022-12-05T00:19:21;30.63;;;14.87;;
7017;SDS011;3549;42.162;24.726;2022-12-05T00:21:46;31.17;;;14.50;;
7017;SDS011;3549;42.162;24.726;2022-12-05T00:24:13;27.93;;;14.17;;
7017;SDS011;3549;42.162;24.726;2022-12-05T00:26:39;27.67;;;14.40;;
7017;SDS011;3549;42.162;24.726;2022-12-05T00:29:05;29.53;;;13.93;;
7017;SDS011;3549;42.162;24.726;2022-12-05T00:31:31;28.10;;;15.13;;
7017;SDS011;3549;42.162;24.726;2022-12-05T00:33:58;29.40;;;14.17;;
7017;SDS011;3549;42.162;24.726;2022-12-05T00:36:26;30.53;;;14.27;;
7017;SDS011;3549;42.162;24.726;2022-12-05T00:38:54;27.23;;;14.80;;
7017;SDS011;3549;42.162;24.726;2022-12-05T00:41:21;28.47;;;13.90;;
7017;SDS011;3549;42.162;24.726;2022-12-05T00:43:49;25.67;;;12.90;;
7017;SDS011;3549;42.162;24.726;2022-12-05T00:46:17;25.03;;;13.07;;
7017;SDS011;3549;42.162;24.726;2022-12-05T00:48:44;24.53;;;13.50;;
7017;SDS011;3549;42.162;24.726;2022-12-05T00:51:14;23.63;;;12.70;;
7017;SDS011;3549;42.162;24.726;2022-12-05T00:53:42;26.53;;;13.73;;
7017;SDS011;3549;42.162;24.726;2022-12-05T00:56:09;25.43;;;13.07;;
7017;SDS011;3549;42.162;24.726;2022-12-05T00:58:36;26.03;;;13.23;;
7017;SDS011;3549;42.162;24.726;2022-12-05T01:01:09;25.53;;;12.87;;
7017;SDS011;3549;42.162;24.726;2022-12-05T01:03:38;23.83;;;13.27;;
7017;SDS011;3549;42.162;24.726;2022-12-05T01:06:04;26.23;;;13.27;;
7017;SDS011;3549;42.162;24.726;2022-12-05T01:08:30;26.93;;;13.17;;
7017;SDS011;3549;42.162;24.726;2022-12-05T01:10:56;22.93;;;12.63;;
7017;SDS011;3549;42.162;24.726;2022-12-05T01:13:22;25.23;;;13.90;;
7017;SDS011;3549;42.162;24.726;2022-12-05T01:15:49;25.53;;;14.10;;
7017;SDS011;3549;42.162;24.726;2022-12-05T01:18:15;26.30;;;13.50;;
7017;SDS011;3549;42.162;24.726;2022-12-05T01:20:41;23.70;;;12.67;;
7017;SDS011;3549;42.162;24.726;2022-12-05T01:23:06;26.20;;;13.83;;
7017;SDS011;3549;42.162;24.726;2022-12-05T01:25:32;31.53;;;13.20;;
7017;SDS011;3549;42.162;24.726;2022-12-05T01:27:58;30.03;;;16.00;;
7017;SDS011;3549;42.162;24.726;2022-12-05T01:30:24;28.70;;;14.63;;
7017;SDS011;3549;42.162;24.726;2022-12-05T01:32:49;33.97;;;15.80;;
7017;SDS011;3549;42.162;24.726;2022-12-05T01:35:15;28.17;;;15.30;;
7017;SDS011;3549;42.162;24.726;2022-12-05T01:37:40;31.57;;;17.27;;
7017;SDS011;3549;42.162;24.726;2022-12-05T01:40:06;29.90;;;14.50;;
7017;SDS011;3549;42.162;24.726;2022-12-05T01:42:32;26.63;;;12.83;;
7017;SDS011;3549;42.162;24.726;2022-12-05T01:44:59;26.80;;;12.40;;
7017;SDS011;3549;42.162;24.726;2022-12-05T01:47:30;27.77;;;13.20;;
7017;SDS011;3549;42.162;24.726;2022-12-05T01:49:57;24.70;;;13.13;;
7017;SDS011;3549;42.162;24.726;2022-12-05T01:52:24;28.13;;;13.27;;
7017;SDS011;3549;42.162;24.726;2022-12-05T01:54:53;23.47;;;12.63;;
7017;SDS011;3549;42.162;24.726;2022-12-05T01:57:23;29.77;;;14.00;;
7017;SDS011;3549;42.162;24.726;2022-12-05T01:59:51;35.97;;;15.53;;
7017;SDS011;3549;42.162;24.726;2022-12-05T02:02:21;31.93;;;14.00;;
7017;SDS011;3549;42.162;24.726;2022-12-05T02:05:06;28.63;;;13.97;;
7017;SDS011;3549;42.162;24.726;2022-12-05T02:07:39;34.57;;;16.40;;
7017;SDS011;3549;42.162;24.726;2022-12-05T02:10:06;29.07;;;14.17;;
7017;SDS011;3549;42.162;24.726;2022-12-05T02:12:32;26.47;;;12.93;;
7017;SDS011;3549;42.162;24.726;2022-12-05T02:15:09;28.27;;;12.67;;
7017;SDS011;3549;42.162;24.726;2022-12-05T02:18:04;26.23;;;12.73;;
7017;SDS011;3549;42.162;24.726;2022-12-05T02:20:45;46.57;;;21.07;;
7017;SDS011;3549;42.162;24.726;2022-12-05T02:32:05;27.73;;;13.53;;
7017;SDS011;3549;42.162;24.726;2022-12-05T02:37:43;23.73;;;12.53;;
7017;SDS011;3549;42.162;24.726;2022-12-05T02:46:36;22.97;;;11.93;;
7017;SDS011;3549;42.162;24.726;2022-12-05T02:49:05;24.67;;;12.53;;
7017;SDS011;3549;42.162;24.726;2022-12-05T02:51:37;22.43;;;12.50;;
7017;SDS011;3549;42.162;24.726;2022-12-05T02:54:09;24.60;;;13.13;;
7017;SDS011;3549;42.162;24.726;2022-12-05T02:56:40;23.50;;;12.77;;
7017;SDS011;3549;42.162;24.726;2022-12-05T02:59:09;24.20;;;12.17;;
7017;SDS011;3549;42.162;24.726;2022-12-05T03:01:34;24.83;;;12.40;;
7017;SDS011;3549;42.162;24.726;2022-12-05T03:04:00;26.77;;;12.83;;
7017;SDS011;3549;42.162;24.726;2022-12-05T03:11:42;24.03;;;11.70;;
7017;SDS011;3549;42.162;24.726;2022-12-05T03:14:21;20.83;;;11.37;;
7017;SDS011;3549;42.162;24.726;2022-12-05T03:16:53;26.93;;;14.00;;
7017;SDS011;3549;42.162;24.726;2022-12-05T03:19:25;25.43;;;12.30;;
7017;SDS011;3549;42.162;24.726;2022-12-05T03:22:05;19.93;;;11.10;;
7017;SDS011;3549;42.162;24.726;2022-12-05T03:24:35;27.00;;;12.57;;
7017;SDS011;3549;42.162;24.726;2022-12-05T03:27:06;25.13;;;12.33;;
7017;SDS011;3549;42.162;24.726;2022-12-05T03:29:44;27.80;;;12.77;;
7017;SDS011;3549;42.162;24.726;2022-12-05T03:35:13;27.47;;;13.90;;
7017;SDS011;3549;42.162;24.726;2022-12-05T03:37:50;30.37;;;12.67;;
7017;SDS011;3549;42.162;24.726;2022-12-05T03:45:48;28.03;;;13.23;;
7017;SDS011;3549;42.162;24.726;2022-12-05T03:51:16;27.57;;;13.90;;
7017;SDS011;3549;42.162;24.726;2022-12-05T03:53:48;30.10;;;13.90;;
7017;SDS011;3549;42.162;24.726;2022-12-05T03:56:21;28.53;;;13.13;;
7017;SDS011;3549;42.162;24.726;2022-12-05T03:59:03;29.57;;;13.83;;
7017;SDS011;3549;42.162;24.726;2022-12-05T04:01:38;27.73;;;13.60;;
7017;SDS011;3549;42.162;24.726;2022-12-05T04:04:25;30.37;;;13.60;;
7017;SDS011;3549;42.162;24.726;2022-12-05T04:06:55;33.07;;;14.43;;
7017;SDS011;3549;42.162;24.726;2022-12-05T04:09:25;31.60;;;14.37;;
7017;SDS011;3549;42.162;24.726;2022-12-05T04:11:59;34.27;;;15.90;;
7017;SDS011;3549;42.162;24.726;2022-12-05T04:14:31;29.63;;;13.93;;
7017;SDS011;3549;42.162;24.726;2022-12-05T04:17:15;33.30;;;14.53;;
7017;SDS011;3549;42.162;24.726;2022-12-05T04:19:59;35.90;;;15.43;;
7017;SDS011;3549;42.162;24.726;2022-12-05T04:22:49;32.40;;;14.53;;
7017;SDS011;3549;42.162;24.726;2022-12-05T04:25:15;29.17;;;14.23;;
7017;SDS011;3549;42.162;24.726;2022-12-05T04:39:20;35.37;;;16.73;;
7017;SDS011;3549;42.162;24.726;2022-12-05T04:41:51;38.93;;;17.53;;
7017;SDS011;3549;42.162;24.726;2022-12-05T04:44:21;36.63;;;17.30;;
7017;SDS011;3549;42.162;24.726;2022-12-05T04:46:51;40.20;;;17.47;;
7017;SDS011;3549;42.162;24.726;2022-12-05T04:49:21;39.70;;;17.77;;
7017;SDS011;3549;42.162;24.726;2022-12-05T04:51:49;39.60;;;19.40;;
7017;SDS011;3549;42.162;24.726;2022-12-05T04:54:21;50.80;;;22.50;;
7017;SDS011;3549;42.162;24.726;2022-12-05T04:56:54;52.73;;;24.93;;
7017;SDS011;3549;42.162;24.726;2022-12-05T04:59:30;51.17;;;25.03;;
7017;SDS011;3549;42.162;24.726;2022-12-05T05:01:56;48.90;;;20.27;;
7017;SDS011;3549;42.162;24.726;2022-12-05T05:04:39;41.87;;;20.80;;
7017;SDS011;3549;42.162;24.726;2022-12-05T05:07:10;54.97;;;22.93;;
7017;SDS011;3549;42.162;24.726;2022-12-05T05:09:37;67.53;;;33.63;;
7017;SDS011;3549;42.162;24.726;2022-12-05T05:12:03;44.53;;;23.47;;
7017;SDS011;3549;42.162;24.726;2022-12-05T05:14:29;37.83;;;17.90;;
7017;SDS011;3549;42.162;24.726;2022-12-05T05:16:55;39.20;;;19.57;;
7017;SDS011;3549;42.162;24.726;2022-12-05T05:19:21;49.33;;;25.20;;
7017;SDS011;3549;42.162;24.726;2022-12-05T05:21:47;39.83;;;17.30;;
7017;SDS011;3549;42.162;24.726;2022-12-05T05:24:12;47.10;;;24.27;;
7017;SDS011;3549;42.162;24.726;2022-12-05T05:26:40;45.03;;;20.33;;
7017;SDS011;3549;42.162;24.726;2022-12-05T05:29:06;40.53;;;17.97;;
7017;SDS011;3549;42.162;24.726;2022-12-05T05:31:33;38.93;;;18.60;;
7017;SDS011;3549;42.162;24.726;2022-12-05T05:33:59;39.20;;;18.20;;
7017;SDS011;3549;42.162;24.726;2022-12-05T05:36:26;49.20;;;24.80;;
7017;SDS011;3549;42.162;24.726;2022-12-05T05:38:53;48.20;;;19.27;;
7017;SDS011;3549;42.162;24.726;2022-12-05T05:41:21;43.00;;;19.57;;
7017;SDS011;3549;42.162;24.726;2022-12-05T05:43:48;41.50;;;18.27;;
7017;SDS011;3549;42.162;24.726;2022-12-05T05:46:15;44.63;;;19.33;;
7017;SDS011;3549;42.162;24.726;2022-12-05T05:48:42;48.90;;;18.57;;
7017;SDS011;3549;42.162;24.726;2022-12-05T05:51:09;47.13;;;23.50;;
7017;SDS011;3549;42.162;24.726;2022-12-05T05:53:35;45.47;;;17.80;;
7017;SDS011;3549;42.162;24.726;2022-12-05T05:56:05;39.40;;;16.53;;
7017;SDS011;3549;42.162;24.726;2022-12-05T05:58:32;47.63;;;22.17;;
7017;SDS011;3549;42.162;24.726;2022-12-05T06:01:15;47.37;;;19.70;;
7017;SDS011;3549;42.162;24.726;2022-12-05T06:03:42;48.60;;;17.83;;
7017;SDS011;3549;42.162;24.726;2022-12-05T06:06:09;63.97;;;25.13;;
7017;SDS011;3549;42.162;24.726;2022-12-05T06:08:37;61.23;;;25.67;;
7017;SDS011;3549;42.162;24.726;2022-12-05T06:11:07;37.73;;;17.43;;
7017;SDS011;3549;42.162;24.726;2022-12-05T06:13:34;42.07;;;17.70;;
7017;SDS011;3549;42.162;24.726;2022-12-05T06:16:00;53.50;;;18.37;;
7017;SDS011;3549;42.162;24.726;2022-12-05T06:18:25;49.90;;;19.80;;
7017;SDS011;3549;42.162;24.726;2022-12-05T06:20:55;51.70;;;19.67;;
7017;SDS011;3549;42.162;24.726;2022-12-05T06:23:22;48.20;;;19.57;;
7017;SDS011;3549;42.162;24.726;2022-12-05T06:25:52;42.67;;;15.50;;
7017;SDS011;3549;42.162;24.726;2022-12-05T06:28:19;44.23;;;16.13;;
7017;SDS011;3549;42.162;24.726;2022-12-05T06:30:46;48.53;;;16.87;;
7017;SDS011;3549;42.162;24.726;2022-12-05T06:33:12;39.33;;;16.70;;
7017;SDS011;3549;42.162;24.726;2022-12-05T06:35:38;44.33;;;16.70;;
7017;SDS011;3549;42.162;24.726;2022-12-05T06:38:05;55.87;;;27.63;;
7017;SDS011;3549;42.162;24.726;2022-12-05T06:40:30;54.77;;;26.60;;
7017;SDS011;3549;42.162;24.726;2022-12-05T06:42:56;37.13;;;18.30;;
7017;SDS011;3549;42.162;24.726;2022-12-05T06:45:22;48.93;;;20.70;;
7017;SDS011;3549;42.162;24.726;2022-12-05T06:47:47;48.23;;;21.50;;
7017;SDS011;3549;42.162;24.726;2022-12-05T06:50:12;49.37;;;22.40;;
7017;SDS011;3549;42.162;24.726;2022-12-05T06:52:38;54.63;;;25.43;;
7017;SDS011;3549;42.162;24.726;2022-12-05T06:55:03;45.87;;;22.13;;
7017;SDS011;3549;42.162;24.726;2022-12-05T06:57:29;41.13;;;21.37;;
7017;SDS011;3549;42.162;24.726;2022-12-05T06:59:55;48.33;;;24.43;;
7017;SDS011;3549;42.162;24.726;2022-12-05T07:02:40;50.97;;;23.90;;
7017;SDS011;3549;42.162;24.726;2022-12-05T07:05:06;45.70;;;22.40;;
7017;SDS011;3549;42.162;24.726;2022-12-05T07:07:32;46.83;;;22.90;;
7017;SDS011;3549;42.162;24.726;2022-12-05T07:09:57;40.47;;;20.17;;
7017;SDS011;3549;42.162;24.726;2022-12-05T07:12:23;42.97;;;21.10;;
7017;SDS011;3549;42.162;24.726;2022-12-05T07:14:48;47.03;;;23.20;;
7017;SDS011;3549;42.162;24.726;2022-12-05T07:17:14;46.67;;;23.33;;
7017;SDS011;3549;42.162;24.726;2022-12-05T07:19:39;43.27;;;22.07;;
7017;SDS011;3549;42.162;24.726;2022-12-05T07:22:05;51.30;;;22.53;;
7017;SDS011;3549;42.162;24.726;2022-12-05T07:24:30;41.70;;;20.30;;
7017;SDS011;3549;42.162;24.726;2022-12-05T07:26:55;48.00;;;21.27;;
7017;SDS011;3549;42.162;24.726;2022-12-05T07:29:21;47.30;;;21.17;;
7017;SDS011;3549;42.162;24.726;2022-12-05T07:31:46;46.27;;;21.70;;
7017;SDS011;3549;42.162;24.726;2022-12-05T07:34:12;46.67;;;21.73;;
7017;SDS011;3549;42.162;24.726;2022-12-05T07:36:37;45.40;;;21.00;;
7017;SDS011;3549;42.162;24.726;2022-12-05T07:39:03;50.23;;;22.53;;
7017;SDS011;3549;42.162;24.726;2022-12-05T07:41:30;43.63;;;20.07;;
7017;SDS011;3549;42.162;24.726;2022-12-05T07:43:57;48.20;;;22.10;;
7017;SDS011;3549;42.162;24.726;2022-12-05T07:46:24;52.50;;;24.67;;
7017;SDS011;3549;42.162;24.726;2022-12-05T07:48:51;79.73;;;35.50;;
7017;SDS011;3549;42.162;24.726;2022-12-05T07:51:17;79.10;;;35.10;;
7017;SDS011;3549;42.162;24.726;2022-12-05T07:53:43;65.13;;;27.70;;
7017;SDS011;3549;42.162;24.726;2022-12-05T07:56:10;57.73;;;27.50;;
7017;SDS011;3549;42.162;24.726;2022-12-05T07:58:41;51.13;;;22.43;;
7017;SDS011;3549;42.162;24.726;2022-12-05T08:01:15;71.70;;;31.57;;
7017;SDS011;3549;42.162;24.726;2022-12-05T08:03:42;77.37;;;32.70;;
7017;SDS011;3549;42.162;24.726;2022-12-05T08:06:09;52.43;;;24.50;;
7017;SDS011;3549;42.162;24.726;2022-12-05T08:08:37;46.83;;;22.77;;
7017;SDS011;3549;42.162;24.726;2022-12-05T08:11:03;45.00;;;22.47;;
7017;SDS011;3549;42.162;24.726;2022-12-05T08:13:30;43.67;;;21.33;;
7017;SDS011;3549;42.162;24.726;2022-12-05T08:15:59;44.87;;;22.27;;
7017;SDS011;3549;42.162;24.726;2022-12-05T08:18:25;48.73;;;23.27;;
7017;SDS011;3549;42.162;24.726;2022-12-05T08:20:51;45.03;;;21.50;;
7017;SDS011;3549;42.162;24.726;2022-12-05T08:23:16;43.80;;;21.60;;
7017;SDS011;3549;42.162;24.726;2022-12-05T08:25:41;46.57;;;22.30;;
7017;SDS011;3549;42.162;24.726;2022-12-05T08:28:07;50.33;;;23.17;;
7017;SDS011;3549;42.162;24.726;2022-12-05T08:30:32;49.47;;;23.70;;
7017;SDS011;3549;42.162;24.726;2022-12-05T08:32:58;47.77;;;22.03;;
7017;SDS011;3549;42.162;24.726;2022-12-05T08:35:24;56.37;;;27.23;;
7017;SDS011;3549;42.162;24.726;2022-12-05T08:37:49;58.10;;;27.93;;
7017;SDS011;3549;42.162;24.726;2022-12-05T08:40:16;48.07;;;22.47;;
7017;SDS011;3549;42.162;24.726;2022-12-05T08:42:41;86.47;;;34.83;;
7017;SDS011;3549;42.162;24.726;2022-12-05T08:45:07;49.87;;;22.97;;
7017;SDS011;3549;42.162;24.726;2022-12-05T08:47:32;47.47;;;23.57;;
7017;SDS011;3549;42.162;24.726;2022-12-05T08:49:58;45.33;;;22.07;;
7017;SDS011;3549;42.162;24.726;2022-12-05T08:52:23;44.23;;;21.80;;
7017;SDS011;3549;42.162;24.726;2022-12-05T08:54:48;50.57;;;20.73;;
7017;SDS011;3549;42.162;24.726;2022-12-05T08:57:14;54.20;;;23.90;;
7017;SDS011;3549;42.162;24.726;2022-12-05T08:59:39;54.70;;;23.73;;
7017;SDS011;3549;42.162;24.726;2022-12-05T09:02:05;44.50;;;21.73;;
7017;SDS011;3549;42.162;24.726;2022-12-05T09:04:30;40.63;;;19.97;;
7017;SDS011;3549;42.162;24.726;2022-12-05T09:06:55;39.70;;;19.23;;
7017;SDS011;3549;42.162;24.726;2022-12-05T09:09:21;40.00;;;19.73;;
7017;SDS011;3549;42.162;24.726;2022-12-05T09:11:46;38.97;;;18.87;;
7017;SDS011;3549;42.162;24.726;2022-12-05T09:14:15;38.97;;;19.30;;
7017;SDS011;3549;42.162;24.726;2022-12-05T09:16:42;39.73;;;20.50;;
7017;SDS011;3549;42.162;24.726;2022-12-05T09:19:10;37.80;;;19.27;;
7017;SDS011;3549;42.162;24.726;2022-12-05T09:21:37;41.80;;;21.00;;
7017;SDS011;3549;42.162;24.726;2022-12-05T09:24:03;43.93;;;21.13;;
7017;SDS011;3549;42.162;24.726;2022-12-05T09:26:28;51.17;;;24.50;;
7017;SDS011;3549;42.162;24.726;2022-12-05T09:28:54;51.00;;;22.77;;
7017;SDS011;3549;42.162;24.726;2022-12-05T09:31:21;43.90;;;21.77;;
7017;SDS011;3549;42.162;24.726;2022-12-05T09:33:48;44.93;;;21.80;;
7017;SDS011;3549;42.162;24.726;2022-12-05T09:36:16;41.47;;;20.43;;
7017;SDS011;3549;42.162;24.726;2022-12-05T09:38:47;47.60;;;20.83;;
7017;SDS011;3549;42.162;24.726;2022-12-05T09:55:20;38.93;;;19.23;;
7017;SDS011;3549;42.162;24.726;2022-12-05T09:57:51;40.53;;;20.47;;
7017;SDS011;3549;42.162;24.726;2022-12-05T10:00:20;32.83;;;16.60;;
7017;SDS011;3549;42.162;24.726;2022-12-05T10:15:52;37.03;;;18.97;;
7017;SDS011;3549;42.162;24.726;2022-12-05T10:20:55;41.30;;;18.80;;
7017;SDS011;3549;42.162;24.726;2022-12-05T10:23:28;43.60;;;21.50;;
7017;SDS011;3549;42.162;24.726;2022-12-05T10:26:00;39.27;;;19.20;;
7017;SDS011;3549;42.162;24.726;2022-12-05T10:31:01;43.83;;;22.67;;
7017;SDS011;3549;42.162;24.726;2022-12-05T10:33:32;37.43;;;19.40;;
7017;SDS011;3549;42.162;24.726;2022-12-05T10:36:12;71.87;;;35.40;;
7017;SDS011;3549;42.162;24.726;2022-12-05T10:38:38;54.80;;;26.10;;
7017;SDS011;3549;42.162;24.726;2022-12-05T10:41:06;45.33;;;24.13;;
7017;SDS011;3549;42.162;24.726;2022-12-05T10:43:35;46.77;;;22.90;;
7017;SDS011;3549;42.162;24.726;2022-12-05T10:46:04;65.30;;;33.33;;
7017;SDS011;3549;42.162;24.726;2022-12-05T10:48:30;64.27;;;32.37;;
7017;SDS011;3549;42.162;24.726;2022-12-05T10:51:00;42.97;;;21.53;;
7017;SDS011;3549;42.162;24.726;2022-12-05T10:53:27;40.70;;;19.93;;
7017;SDS011;3549;42.162;24.726;2022-12-05T10:56:02;40.50;;;19.60;;
7017;SDS011;3549;42.162;24.726;2022-12-05T10:58:28;40.73;;;20.00;;
7017;SDS011;3549;42.162;24.726;2022-12-05T11:00:58;35.77;;;18.47;;
7017;SDS011;3549;42.162;24.726;2022-12-05T11:03:33;29.97;;;15.27;;
7017;SDS011;3549;42.162;24.726;2022-12-05T11:08:51;34.90;;;16.90;;
7017;SDS011;3549;42.162;24.726;2022-12-05T11:11:19;40.03;;;20.40;;
7017;SDS011;3549;42.162;24.726;2022-12-05T11:13:55;53.13;;;25.23;;
7017;SDS011;3549;42.162;24.726;2022-12-05T11:16:25;47.73;;;22.60;;
7017;SDS011;3549;42.162;24.726;2022-12-05T11:18:54;40.53;;;19.17;;
7017;SDS011;3549;42.162;24.726;2022-12-05T11:21:19;63.63;;;27.80;;
7017;SDS011;3549;42.162;24.726;2022-12-05T11:23:45;52.10;;;23.20;;
7017;SDS011;3549;42.162;24.726;2022-12-05T11:26:16;46.70;;;23.07;;
7017;SDS011;3549;42.162;24.726;2022-12-05T11:28:42;47.10;;;25.33;;
7017;SDS011;3549;42.162;24.726;2022-12-05T11:33:36;46.80;;;24.40;;
7017;SDS011;3549;42.162;24.726;2022-12-05T11:36:12;31.13;;;16.33;;
7017;SDS011;3549;42.162;24.726;2022-12-05T11:38:44;37.93;;;17.43;;
7017;SDS011;3549;42.162;24.726;2022-12-05T11:51:46;50.07;;;26.80;;
7017;SDS011;3549;42.162;24.726;2022-12-05T12:03:18;27.40;;;14.00;;
7017;SDS011;3549;42.162;24.726;2022-12-05T12:08:29;39.27;;;19.63;;
7017;SDS011;3549;42.162;24.726;2022-12-05T12:14:15;36.90;;;18.30;;
7017;SDS011;3549;42.162;24.726;2022-12-05T12:28:06;24.00;;;12.13;;
7017;SDS011;3549;42.162;24.726;2022-12-05T12:30:39;45.30;;;24.63;;
7017;SDS011;3549;42.162;24.726;2022-12-05T12:39:16;43.10;;;26.77;;
7017;SDS011;3549;42.162;24.726;2022-12-05T12:42:23;56.27;;;32.90;;
7017;SDS011;3549;42.162;24.726;2022-12-05T12:44:57;79.40;;;42.90;;
7017;SDS011;3549;42.162;24.726;2022-12-05T12:50:21;96.53;;;46.30;;
7017;SDS011;3549;42.162;24.726;2022-12-05T13:04:22;64.13;;;31.10;;
7017;SDS011;3549;42.162;24.726;2022-12-05T13:12:14;31.10;;;15.43;;
7017;SDS011;3549;42.162;24.726;2022-12-05T13:14:48;64.73;;;35.30;;
7017;SDS011;3549;42.162;24.726;2022-12-05T13:17:18;32.63;;;15.07;;
7017;SDS011;3549;42.162;24.726;2022-12-05T13:19:50;32.13;;;17.93;;
7017;SDS011;3549;42.162;24.726;2022-12-05T13:22:17;54.03;;;21.27;;
7017;SDS011;3549;42.162;24.726;2022-12-05T13:24:45;29.40;;;13.43;;
7017;SDS011;3549;42.162;24.726;2022-12-05T13:27:14;47.40;;;22.13;;
7017;SDS011;3549;42.162;24.726;2022-12-05T13:29:52;26.00;;;13.87;;
7017;SDS011;3549;42.162;24.726;2022-12-05T13:32:32;27.10;;;14.27;;
7017;SDS011;3549;42.162;24.726;2022-12-05T13:37:31;80.07;;;27.70;;
7017;SDS011;3549;42.162;24.726;2022-12-05T13:40:21;57.00;;;24.97;;
7017;SDS011;3549;42.162;24.726;2022-12-05T13:43:10;36.77;;;18.77;;
7017;SDS011;3549;42.162;24.726;2022-12-05T13:45:39;49.90;;;27.03;;
7017;SDS011;3549;42.162;24.726;2022-12-05T13:48:21;51.63;;;27.77;;
7017;SDS011;3549;42.162;24.726;2022-12-05T13:55:59;25.83;;;13.03;;
7017;SDS011;3549;42.162;24.726;2022-12-05T14:03:59;37.13;;;21.87;;
7017;SDS011;3549;42.162;24.726;2022-12-05T14:09:02;74.67;;;35.70;;
7017;SDS011;3549;42.162;24.726;2022-12-05T14:11:28;52.77;;;27.10;;
7017;SDS011;3549;42.162;24.726;2022-12-05T14:13:54;63.83;;;28.57;;
7017;SDS011;3549;42.162;24.726;2022-12-05T14:21:23;63.60;;;26.37;;
7017;SDS011;3549;42.162;24.726;2022-12-05T14:24:09;67.73;;;35.63;;
7017;SDS011;3549;42.162;24.726;2022-12-05T14:29:38;61.60;;;30.27;;
7017;SDS011;3549;42.162;24.726;2022-12-05T14:32:24;43.40;;;21.33;;
7017;SDS011;3549;42.162;24.726;2022-12-05T14:35:00;54.30;;;27.57;;
7017;SDS011;3549;42.162;24.726;2022-12-05T14:37:36;49.77;;;25.70;;
7017;SDS011;3549;42.162;24.726;2022-12-05T14:42:52;50.10;;;21.33;;
7017;SDS011;3549;42.162;24.726;2022-12-05T14:47:54;46.27;;;24.23;;
7017;SDS011;3549;42.162;24.726;2022-12-05T14:55:46;48.00;;;22.77;;
7017;SDS011;3549;42.162;24.726;2022-12-05T14:58:16;138.47;;;46.10;;
7017;SDS011;3549;42.162;24.726;2022-12-05T15:00:45;111.57;;;54.10;;
7017;SDS011;3549;42.162;24.726;2022-12-05T15:03:28;106.60;;;46.67;;
7017;SDS011;3549;42.162;24.726;2022-12-05T15:05:56;376.47;;;122.03;;
7017;SDS011;3549;42.162;24.726;2022-12-05T15:08:25;165.60;;;64.67;;
7017;SDS011;3549;42.162;24.726;2022-12-05T15:10:54;109.07;;;46.77;;
7017;SDS011;3549;42.162;24.726;2022-12-05T15:13:21;127.43;;;50.37;;
7017;SDS011;3549;42.162;24.726;2022-12-05T15:18:33;169.50;;;87.23;;
7017;SDS011;3549;42.162;24.726;2022-12-05T15:21:18;95.57;;;44.80;;
7017;SDS011;3549;42.162;24.726;2022-12-05T15:26:22;158.37;;;61.83;;
7017;SDS011;3549;42.162;24.726;2022-12-05T15:31:39;293.97;;;109.07;;
7017;SDS011;3549;42.162;24.726;2022-12-05T15:39:50;113.07;;;45.77;;
7017;SDS011;3549;42.162;24.726;2022-12-05T15:42:34;82.43;;;36.17;;
7017;SDS011;3549;42.162;24.726;2022-12-05T15:47:36;68.40;;;28.87;;
7017;SDS011;3549;42.162;24.726;2022-12-05T15:50:02;53.13;;;24.07;;
7017;SDS011;3549;42.162;24.726;2022-12-05T15:52:32;52.77;;;23.23;;
7017;SDS011;3549;42.162;24.726;2022-12-05T15:55:04;68.13;;;28.80;;
7017;SDS011;3549;42.162;24.726;2022-12-05T15:57:37;117.17;;;41.13;;
7017;SDS011;3549;42.162;24.726;2022-12-05T16:00:12;89.47;;;35.27;;
7017;SDS011;3549;42.162;24.726;2022-12-05T16:02:42;134.77;;;51.13;;
7017;SDS011;3549;42.162;24.726;2022-12-05T16:05:19;211.20;;;76.97;;
7017;SDS011;3549;42.162;24.726;2022-12-05T16:07:51;167.03;;;64.13;;
7017;SDS011;3549;42.162;24.726;2022-12-05T16:10:18;154.43;;;67.30;;
7017;SDS011;3549;42.162;24.726;2022-12-05T16:12:45;87.03;;;36.87;;
7017;SDS011;3549;42.162;24.726;2022-12-05T16:15:21;94.30;;;41.43;;
7017;SDS011;3549;42.162;24.726;2022-12-05T16:17:53;129.63;;;51.60;;
7017;SDS011;3549;42.162;24.726;2022-12-05T16:22:48;140.77;;;53.30;;
7017;SDS011;3549;42.162;24.726;2022-12-05T16:25:23;144.23;;;55.03;;
7017;SDS011;3549;42.162;24.726;2022-12-05T16:27:55;147.47;;;59.73;;
7017;SDS011;3549;42.162;24.726;2022-12-05T16:30:51;160.80;;;72.20;;
7017;SDS011;3549;42.162;24.726;2022-12-05T16:33:21;288.53;;;141.90;;
7017;SDS011;3549;42.162;24.726;2022-12-05T16:35:47;303.67;;;156.93;;
7017;SDS011;3549;42.162;24.726;2022-12-05T16:41:02;223.57;;;103.70;;
7017;SDS011;3549;42.162;24.726;2022-12-05T16:48:34;60.27;;;26.50;;
7017;SDS011;3549;42.162;24.726;2022-12-05T16:53:38;59.90;;;25.67;;
7017;SDS011;3549;42.162;24.726;2022-12-05T16:56:13;116.63;;;40.53;;
7017;SDS011;3549;42.162;24.726;2022-12-05T16:58:41;256.80;;;66.53;;
7017;SDS011;3549;42.162;24.726;2022-12-05T17:01:06;98.50;;;37.07;;
7017;SDS011;3549;42.162;24.726;2022-12-05T17:03:40;74.47;;;29.37;;
7017;SDS011;3549;42.162;24.726;2022-12-05T17:06:05;168.00;;;58.50;;
7017;SDS011;3549;42.162;24.726;2022-12-05T17:08:31;129.13;;;50.17;;
7017;SDS011;3549;42.162;24.726;2022-12-05T17:10:56;218.10;;;77.43;;
7017;SDS011;3549;42.162;24.726;2022-12-05T17:13:22;92.70;;;36.63;;
7017;SDS011;3549;42.162;24.726;2022-12-05T17:15:48;125.00;;;46.07;;
7017;SDS011;3549;42.162;24.726;2022-12-05T17:18:14;114.70;;;45.37;;
7017;SDS011;3549;42.162;24.726;2022-12-05T17:20:45;151.63;;;54.73;;
7017;SDS011;3549;42.162;24.726;2022-12-05T17:23:18;245.60;;;104.17;;
7017;SDS011;3549;42.162;24.726;2022-12-05T17:25:48;198.77;;;82.60;;
7017;SDS011;3549;42.162;24.726;2022-12-05T17:28:15;230.43;;;104.97;;
7017;SDS011;3549;42.162;24.726;2022-12-05T17:30:41;295.10;;;135.57;;
7017;SDS011;3549;42.162;24.726;2022-12-05T17:33:10;247.87;;;101.03;;
7017;SDS011;3549;42.162;24.726;2022-12-05T17:35:37;400.67;;;220.27;;
7017;SDS011;3549;42.162;24.726;2022-12-05T17:38:04;278.07;;;140.17;;
7017;SDS011;3549;42.162;24.726;2022-12-05T17:40:31;133.27;;;61.37;;
7017;SDS011;3549;42.162;24.726;2022-12-05T17:42:57;134.87;;;62.20;;
7017;SDS011;3549;42.162;24.726;2022-12-05T17:45:23;128.60;;;57.73;;
7017;SDS011;3549;42.162;24.726;2022-12-05T17:47:49;134.07;;;63.43;;
7017;SDS011;3549;42.162;24.726;2022-12-05T17:50:16;88.43;;;38.80;;
7017;SDS011;3549;42.162;24.726;2022-12-05T17:52:43;123.47;;;50.50;;
7017;SDS011;3549;42.162;24.726;2022-12-05T17:55:30;73.90;;;32.50;;
7017;SDS011;3549;42.162;24.726;2022-12-05T17:57:54;65.67;;;28.87;;
7017;SDS011;3549;42.162;24.726;2022-12-05T18:00:21;64.70;;;25.87;;
7017;SDS011;3549;42.162;24.726;2022-12-05T18:02:48;56.07;;;25.40;;
7017;SDS011;3549;42.162;24.726;2022-12-05T18:05:14;64.30;;;27.27;;
7017;SDS011;3549;42.162;24.726;2022-12-05T18:07:40;62.27;;;27.00;;
7017;SDS011;3549;42.162;24.726;2022-12-05T18:10:08;56.63;;;25.77;;
7017;SDS011;3549;42.162;24.726;2022-12-05T18:12:36;88.53;;;33.83;;
7017;SDS011;3549;42.162;24.726;2022-12-05T18:15:01;113.53;;;42.63;;
7017;SDS011;3549;42.162;24.726;2022-12-05T18:17:28;73.43;;;29.10;;